Date,TemperatureHighF,TemperatureAvgF,TemperatureLowF,DewpointHighF,DewpointAvgF,DewpointLowF,HumidityHigh,HumidityAvg,HumidityLow,PressureMaxIn,PressureMinIn,WindSpeedMaxMPH,WindSpeedAvgMPH,GustSpeedMaxMPH,PrecipitationSumIn
2013-1-1,50.2,45.6,40.9,49.4,41.4,29.2,97,86,54,30.24,30.06,4,0,8,0.24
2013-1-2,48.6,44.6,39.4,48.1,41.8,37.8,98,90,70,30.30,30.03,2,0,8,0.20
2013-1-3,44.6,38.2,26.1,38.5,34.9,25.1,96,88,69,30.40,30.25,2,0,4,0.00
2013-1-4,49.5,35.3,22.7,30.9,25.0,21.0,97,70,38,30.47,30.33,6,2,11,0.00
2013-1-5,48.2,36.1,25.0,33.0,25.6,21.0,88,68,39,30.53,30.38,3,1,8,0.00
2013-1-6,49.8,41.5,32.3,40.0,36.1,31.0,97,82,64,30.38,30.17,3,0,5,0.01
2013-1-7,52.2,37.2,27.2,33.9,29.9,25.8,95,77,45,30.56,30.31,3,1,9,0.00
2013-1-8,57.0,41.2,25.1,44.6,35.7,24.1,97,82,56,30.60,30.49,2,0,6,0.00
2013-1-9,66.6,52.0,36.2,54.9,46.1,35.2,97,82,54,30.58,30.48,3,0,7,0.00
2013-1-10,62.7,51.5,43.2,48.9,43.8,35.8,98,79,39,30.64,30.53,4,0,9,0.00
2013-1-11,50.7,46.2,41.5,47.9,44.1,38.0,98,93,63,30.53,30.28,2,0,5,0.14
2013-1-12,70.3,56.8,48.1,63.9,55.0,47.6,99,94,78,30.29,30.21,5,1,8,0.00
2013-1-13,73.1,58.1,45.9,61.5,54.5,45.4,99,89,66,30.25,30.16,5,1,11,0.00
2013-1-14,67.8,60.4,54.9,64.1,58.9,54.1,98,95,85,30.25,30.18,3,0,6,0.01
2013-1-15,60.6,47.8,44.3,60.3,47.1,43.8,99,97,92,30.28,30.17,2,1,8,0.04
2013-1-16,49.1,44.9,41.3,48.8,44.5,40.8,99,98,97,30.19,30.10,3,0,6,0.17
2013-1-17,50.4,45.9,32.8,50.1,45.1,31.9,99,97,93,30.28,29.96,4,1,18,1.19
2013-1-18,44.3,34.0,24.8,32.9,28.5,23.8,98,82,47,30.67,30.26,4,1,13,0.17
2013-1-19,53.8,34.8,21.9,31.7,26.7,20.7,98,77,30,30.64,30.30,3,1,9,0.01
2013-1-20,62.6,43.8,31.2,37.4,33.1,29.7,96,70,33,30.30,30.12,7,2,12,0.00
2013-1-21,58.6,40.7,26.2,34.6,28.0,20.7,98,66,31,30.22,30.00,6,1,14,0.00
2013-1-22,38.9,32.0,23.5,22.7,9.0,-1.4,69,40,20,30.41,30.09,7,2,14,0.00
2013-1-23,40.6,26.4,15.6,19.2,12.8,5.3,85,59,32,30.51,30.19,5,1,10,0.00
2013-1-24,39.2,30.4,21.6,28.0,13.9,2.6,87,54,30,30.64,30.11,7,1,20,0.00
2013-1-25,26.0,22.0,16.0,23.8,16.1,5.6,94,79,46,30.66,30.26,2,0,5,0.00
2013-1-26,42.9,29.9,22.6,33.0,27.2,21.1,96,90,61,30.53,30.23,3,0,6,0.12
2013-1-27,39.5,30.1,20.3,29.9,25.6,18.9,97,84,63,30.74,30.53,3,0,9,0.03
2013-1-28,49.9,41.5,31.0,47.4,36.0,28.1,93,81,64,30.65,30.36,3,1,8,0.05
2013-1-29,71.5,54.2,38.3,58.4,49.9,37.5,98,87,61,30.37,30.18,7,1,13,0.00
2013-1-30,73.8,66.1,51.5,64.1,61.1,50.7,98,85,67,30.17,29.51,11,3,23,0.42
2013-1-31,57.9,43.9,27.5,54.4,30.2,18.5,92,61,31,30.14,29.59,12,6,24,0.10
2013-2-1,40.9,33.1,23.2,28.8,15.2,2.3,88,50,24,30.51,30.02,10,3,21,0.00
2013-2-2,44.4,30.9,15.1,36.2,16.1,7.9,90,58,26,30.54,30.16,8,1,13,0.00
2013-2-3,50.0,39.3,29.4,36.2,29.0,23.4,98,69,41,30.16,29.97,8,2,14,0.00
2013-2-4,47.8,35.0,22.9,30.3,24.3,20.4,92,68,37,30.28,30.12,4,0,10,0.00
2013-2-5,61.0,42.9,31.4,36.8,32.5,28.0,91,70,36,30.14,30.00,8,1,16,0.00
2013-2-6,62.9,42.3,28.1,36.5,28.6,20.1,97,66,20,30.39,30.09,5,1,12,0.00
2013-2-7,45.4,39.5,30.4,41.3,35.6,26.2,96,86,73,30.44,30.11,2,1,9,0.39
2013-2-8,56.0,44.5,37.1,46.5,38.7,28.3,96,82,48,30.19,29.95,7,3,15,0.37
2013-2-9,53.7,37.9,25.2,28.9,23.6,16.5,88,61,23,30.49,30.18,6,2,13,0.00
2013-2-10,53.4,37.7,22.7,39.9,25.7,19.7,93,67,28,30.62,30.33,3,0,9,0.06
2013-2-11,61.7,54.9,41.6,59.4,53.3,39.8,98,94,88,30.33,30.04,4,2,16,0.08
2013-2-12,58.6,50.5,44.6,53.0,37.0,24.6,98,64,27,30.20,30.02,5,1,14,0.00
2013-2-13,47.9,44.7,38.3,45.7,42.5,34.5,97,92,73,30.07,29.75,7,1,10,0.04
2013-2-14,50.9,38.9,29.2,36.5,31.7,27.9,97,78,45,30.20,29.96,3,0,10,0.01
2013-2-15,61.9,42.7,27.6,39.8,31.7,26.6,98,71,29,30.22,30.05,4,1,9,0.00
2013-2-16,44.5,34.5,27.3,36.4,31.5,23.4,96,89,72,30.09,29.96,5,1,13,0.24
2013-2-17,38.6,27.4,18.7,23.4,16.1,8.9,91,66,30,30.42,30.07,10,3,26,0.00
2013-2-18,52.3,31.8,14.5,27.6,19.7,12.6,94,67,28,30.54,30.38,3,0,9,0.02
2013-2-19,48.7,37.4,25.7,46.7,35.4,24.0,98,92,85,30.38,29.99,6,1,12,0.17
2013-2-20,51.9,37.6,23.9,36.4,21.8,13.8,98,58,22,30.26,30.10,7,2,12,0.00
2013-2-21,56.2,38.2,21.9,29.9,20.6,13.6,87,54,21,30.37,30.24,4,0,8,0.00
2013-2-22,43.1,35.5,33.2,34.8,33.3,28.0,97,92,55,30.46,30.24,2,0,5,0.46
2013-2-23,42.7,39.1,35.3,41.9,38.2,34.5,98,97,96,30.24,29.95,2,0,6,0.74
2013-2-24,62.4,47.1,34.1,46.2,38.8,29.6,98,78,31,30.15,29.93,6,2,12,0.04
2013-2-25,41.6,35.6,29.7,29.7,25.9,21.7,89,69,49,30.35,30.16,3,1,7,0.00
2013-2-26,57.0,43.3,33.6,56.4,40.6,26.0,98,90,65,30.26,29.67,5,2,16,0.79
2013-2-27,57.6,46.4,35.9,43.4,39.4,34.6,98,79,51,29.91,29.75,6,2,13,0.00
2013-2-28,48.7,39.9,30.0,38.7,30.4,26.1,98,72,42,29.98,29.82,9,2,16,0.00
2013-3-1,46.3,37.8,25.2,33.2,28.6,23.7,96,71,48,30.05,29.97,6,2,11,0.00
2013-3-2,45.6,36.4,27.3,31.3,26.7,19.2,94,70,47,30.06,29.93,5,1,14,0.00
2013-3-3,44.7,34.6,26.1,23.4,20.1,18.0,78,56,40,30.11,29.98,7,2,14,0.00
2013-3-4,51.0,33.6,18.2,24.7,17.9,13.6,89,57,24,30.25,30.11,8,2,17,0.00
2013-3-5,45.4,40.1,31.2,44.4,35.7,25.0,97,85,56,30.20,29.68,2,0,6,0.20
2013-3-6,47.3,41.7,36.4,45.9,31.0,25.2,98,67,46,30.17,29.65,13,6,28,0.03
2013-3-7,53.6,41.6,31.1,32.0,28.7,24.6,83,61,41,30.37,30.17,6,3,15,0.00
2013-3-8,56.0,42.8,29.4,28.2,25.4,23.4,81,53,30,30.43,30.29,7,2,20,0.00
2013-3-9,63.7,43.8,32.5,37.2,30.0,26.0,90,62,30,30.47,30.35,4,1,13,0.00
2013-3-10,67.8,46.1,28.3,37.9,31.0,27.1,96,63,23,30.44,30.31,4,1,7,0.00
2013-3-11,67.2,51.2,32.6,53.2,42.2,27.2,89,72,56,30.36,30.02,4,1,14,0.00
2013-3-12,68.2,60.2,47.3,61.8,51.8,30.8,97,76,41,30.06,29.87,7,3,16,0.68
2013-3-13,55.7,44.4,29.4,34.3,27.4,18.7,96,56,28,30.26,30.06,10,3,19,0.00
2013-3-14,52.4,38.5,27.0,25.6,19.9,15.6,76,49,25,30.38,30.25,8,3,15,0.00
2013-3-15,61.2,45.6,23.8,37.1,29.2,20.0,89,56,33,30.32,30.02,7,2,14,0.00
2013-3-16,77.2,58.7,40.7,49.3,44.0,35.9,91,62,34,30.02,29.78,8,2,17,0.00
2013-3-17,61.3,50.3,42.5,52.4,45.0,38.4,95,83,61,30.26,29.95,4,1,14,0.00
2013-3-18,42.3,39.9,37.9,40.6,38.7,36.6,98,95,88,30.30,29.96,4,1,8,0.61
2013-3-19,65.4,50.1,40.3,45.5,34.1,16.1,98,64,17,30.14,29.95,10,3,20,0.00
2013-3-20,54.9,44.9,32.9,28.6,17.8,5.6,81,37,19,30.23,29.91,6,1,14,0.00
2013-3-21,45.1,39.1,32.6,31.6,19.4,10.1,87,47,28,30.08,29.86,10,3,20,0.00